createdAt,value
2023-05-21T00:00:07.148Z,500.00
2023-05-21T00:01:07.168Z,500.00
2023-05-21T00:02:07.165Z,444.00
2023-05-21T00:03:07.215Z,419.00
2023-05-21T00:04:07.182Z,416.00
2023-05-21T00:05:07.191Z,428.00
2023-05-21T00:06:07.245Z,438.00
2023-05-21T00:07:07.205Z,466.00
2023-05-21T00:08:07.209Z,492.00
2023-05-21T00:09:07.209Z,500.00
2023-05-21T00:10:07.231Z,500.00
2023-05-21T00:11:07.234Z,500.00
2023-05-21T00:12:07.270Z,500.00
2023-05-21T00:13:07.234Z,500.00
2023-05-21T00:14:07.236Z,500.00
2023-05-21T00:15:07.320Z,500.00
2023-05-21T00:16:07.272Z,500.00
2023-05-21T00:17:07.265Z,500.00
2023-05-21T00:18:07.294Z,501.00
2023-05-21T00:19:07.322Z,500.00
2023-05-21T00:20:07.287Z,500.00
2023-05-21T00:21:07.282Z,502.00
2023-05-21T00:22:07.299Z,500.00
2023-05-21T00:23:07.294Z,500.00
2023-05-21T00:24:07.300Z,501.00
2023-05-21T00:25:07.308Z,500.00
2023-05-21T00:26:07.305Z,503.00
2023-05-21T00:27:07.317Z,500.00
2023-05-21T00:28:07.359Z,500.00
2023-05-21T00:29:07.322Z,502.00
2023-05-21T00:30:07.344Z,500.00
2023-05-21T00:31:07.340Z,500.00
2023-05-21T00:32:07.483Z,500.00
2023-05-21T00:33:07.382Z,502.00
2023-05-21T00:34:07.368Z,503.00
2023-05-21T00:35:07.414Z,501.00
2023-05-21T00:36:07.399Z,502.00
2023-05-21T00:37:07.415Z,500.00
2023-05-21T00:38:07.453Z,502.00
2023-05-21T00:39:07.472Z,500.00
2023-05-21T00:40:07.486Z,503.00
2023-05-21T00:41:07.506Z,500.00
2023-05-21T00:42:07.872Z,508.00
2023-05-21T00:43:07.927Z,502.00
2023-05-21T00:44:07.959Z,500.00
2023-05-21T00:45:07.962Z,507.00
2023-05-21T00:46:08.040Z,504.00
2023-05-21T00:47:07.934Z,503.00
2023-05-21T00:48:08.015Z,500.00
2023-05-21T00:49:07.926Z,500.00
2023-05-21T00:50:07.939Z,502.00
2023-05-21T00:51:07.940Z,506.00
2023-05-21T00:52:07.922Z,500.00
2023-05-21T00:53:07.929Z,501.00
2023-05-21T00:54:07.924Z,501.00
2023-05-21T00:55:07.968Z,507.00
2023-05-21T00:56:07.934Z,504.00
2023-05-21T00:57:07.921Z,502.00
2023-05-21T00:58:07.925Z,502.00
2023-05-21T00:59:07.931Z,503.00
2023-05-21T01:00:07.968Z,500.00
2023-05-21T01:01:07.955Z,500.00
2023-05-21T01:02:07.966Z,503.00
2023-05-21T01:03:08.103Z,500.00
2023-05-21T01:04:07.948Z,500.00
2023-05-21T01:05:07.987Z,500.00
2023-05-21T01:06:07.986Z,500.00
2023-05-21T01:07:08.005Z,500.00
2023-05-21T01:08:08.034Z,502.00
2023-05-21T01:09:08.036Z,503.00
2023-05-21T01:10:08.063Z,504.00
2023-05-21T01:11:08.085Z,503.00
2023-05-21T01:12:08.089Z,506.00
2023-05-21T01:13:08.108Z,501.00
2023-05-21T01:14:08.133Z,503.00
2023-05-21T01:15:08.149Z,505.00
2023-05-21T01:16:08.208Z,501.00
2023-05-21T01:17:08.286Z,504.00
2023-05-21T01:18:08.209Z,501.00
2023-05-21T01:19:08.338Z,503.00
2023-05-21T01:20:09.370Z,502.00
2023-05-21T01:21:08.280Z,502.00
2023-05-21T01:22:08.295Z,504.00
2023-05-21T01:23:08.315Z,502.00
2023-05-21T01:24:08.339Z,503.00
2023-05-21T01:25:08.359Z,500.00
2023-05-21T01:26:08.375Z,502.00
2023-05-21T01:27:08.396Z,503.00
2023-05-21T01:28:08.412Z,502.00
2023-05-21T01:29:08.434Z,500.00
2023-05-21T01:30:08.453Z,506.00
2023-05-21T01:31:08.480Z,502.00
2023-05-21T01:32:08.538Z,502.00
2023-05-21T01:33:08.978Z,501.00
2023-05-21T01:34:09.093Z,505.00
2023-05-21T01:35:08.958Z,501.00
2023-05-21T01:36:08.955Z,505.00
2023-05-21T01:37:08.951Z,504.00
2023-05-21T01:38:08.946Z,502.00
2023-05-21T01:39:08.955Z,504.00
2023-05-21T01:40:08.961Z,503.00
2023-05-21T01:41:08.967Z,504.00
2023-05-21T01:42:08.953Z,503.00
2023-05-21T01:43:08.948Z,500.00
2023-05-21T01:44:08.953Z,507.00
2023-05-21T01:45:08.957Z,504.00
2023-05-21T01:46:08.979Z,506.00
2023-05-21T01:47:09.033Z,502.00
2023-05-21T01:48:09.054Z,509.00
2023-05-21T01:49:08.956Z,506.00
2023-05-21T01:50:08.959Z,503.00
2023-05-21T01:51:08.959Z,504.00
2023-05-21T01:52:08.970Z,505.00
2023-05-21T01:53:08.998Z,504.00
2023-05-21T01:54:09.019Z,503.00
2023-05-21T01:55:09.037Z,504.00
2023-05-21T01:56:09.061Z,503.00
2023-05-21T01:57:09.087Z,504.00
2023-05-21T01:58:09.130Z,502.00
2023-05-21T01:59:09.131Z,507.00
2023-05-21T02:00:09.845Z,504.00
2023-05-21T02:01:09.182Z,504.00
2023-05-21T02:02:09.301Z,504.00
2023-05-21T02:03:09.319Z,503.00
2023-05-21T02:04:09.465Z,500.00
2023-05-21T02:05:09.293Z,502.00
2023-05-21T02:06:09.295Z,500.00
2023-05-21T02:07:09.310Z,505.00
2023-05-21T02:08:09.340Z,507.00
2023-05-21T02:09:09.359Z,502.00
2023-05-21T02:10:09.382Z,506.00
2023-05-21T02:11:09.424Z,502.00
2023-05-21T02:12:09.423Z,507.00
2023-05-21T02:13:09.468Z,501.00
2023-05-21T02:14:09.476Z,501.00
2023-05-21T02:15:09.504Z,505.00
2023-05-21T02:16:09.550Z,507.00
2023-05-21T02:17:09.558Z,505.00
2023-05-21T02:18:09.616Z,503.00
2023-05-21T02:19:09.599Z,503.00
2023-05-21T02:20:09.688Z,504.00
2023-05-21T02:21:09.648Z,504.00
2023-05-21T02:22:09.670Z,503.00
2023-05-21T02:23:09.709Z,506.00
2023-05-21T02:24:09.719Z,503.00
2023-05-21T02:25:09.787Z,503.00
2023-05-21T02:26:09.786Z,504.00
2023-05-21T02:27:09.816Z,502.00
2023-05-21T02:28:09.894Z,504.00
2023-05-21T02:29:09.859Z,506.00
2023-05-21T02:30:09.891Z,504.00
2023-05-21T02:31:10.856Z,505.00
2023-05-21T02:32:09.955Z,505.00
2023-05-21T02:33:10.041Z,505.00
2023-05-21T02:34:10.038Z,507.00
2023-05-21T02:35:10.027Z,502.00
2023-05-21T02:36:10.081Z,506.00
2023-05-21T02:37:10.082Z,504.00
2023-05-21T02:38:10.141Z,504.00
2023-05-21T02:39:10.143Z,507.00
2023-05-21T02:40:10.374Z,503.00
2023-05-21T02:41:10.207Z,506.00
2023-05-21T02:42:10.247Z,506.00
2023-05-21T02:43:10.268Z,501.00
2023-05-21T02:44:10.288Z,506.00
2023-05-21T02:45:10.327Z,502.00
2023-05-21T02:46:10.420Z,503.00
2023-05-21T02:47:10.409Z,506.00
2023-05-21T02:48:10.527Z,502.00
2023-05-21T02:49:10.457Z,500.00
2023-05-21T02:50:10.481Z,502.00
2023-05-21T02:51:10.514Z,503.00
2023-05-21T02:52:10.571Z,505.00
2023-05-21T02:53:10.572Z,503.00
2023-05-21T02:54:10.602Z,506.00
2023-05-21T02:55:10.617Z,505.00
2023-05-21T02:56:10.646Z,508.00
2023-05-21T02:57:10.685Z,506.00
2023-05-21T02:58:10.705Z,503.00
2023-05-21T02:59:10.732Z,503.00
2023-05-21T03:00:10.768Z,504.00
2023-05-21T03:01:10.894Z,504.00
2023-05-21T03:02:10.849Z,502.00
2023-05-21T03:03:11.017Z,500.00
2023-05-21T03:04:10.891Z,503.00
2023-05-21T03:05:10.952Z,502.00
2023-05-21T03:06:10.944Z,500.00
2023-05-21T03:07:10.968Z,507.00
2023-05-21T03:08:11.027Z,504.00
2023-05-21T03:09:11.040Z,504.00
2023-05-21T03:10:11.094Z,505.00
2023-05-21T03:11:11.087Z,505.00
2023-05-21T03:12:11.109Z,502.00
2023-05-21T03:13:11.172Z,503.00
2023-05-21T03:14:11.172Z,505.00
2023-05-21T03:15:11.192Z,504.00
2023-05-21T03:16:11.278Z,504.00
2023-05-21T03:17:11.249Z,505.00
2023-05-21T03:18:11.304Z,507.00
2023-05-21T03:19:11.386Z,506.00
2023-05-21T03:20:11.328Z,508.00
2023-05-21T03:21:11.357Z,505.00
2023-05-21T03:22:11.407Z,506.00
2023-05-21T03:23:12.237Z,507.00
2023-05-21T03:24:11.447Z,514.00
2023-05-21T03:25:11.438Z,509.00
2023-05-21T03:26:11.412Z,505.00
2023-05-21T03:27:11.416Z,505.00
2023-05-21T03:28:11.427Z,505.00
2023-05-21T03:29:11.409Z,505.00
2023-05-21T03:30:11.406Z,504.00
2023-05-21T03:31:11.412Z,506.00
2023-05-21T03:32:11.469Z,503.00
2023-05-21T03:33:11.477Z,503.00
2023-05-21T03:34:11.408Z,504.00
2023-05-21T03:35:11.403Z,502.00
2023-05-21T03:36:11.423Z,505.00
2023-05-21T03:37:11.420Z,502.00
2023-05-21T03:38:11.434Z,505.00
2023-05-21T03:39:11.414Z,504.00
2023-05-21T03:40:11.441Z,504.00
2023-05-21T03:41:11.427Z,501.00
2023-05-21T03:42:11.415Z,505.00
2023-05-21T03:43:11.423Z,503.00
2023-05-21T03:44:11.421Z,504.00
2023-05-21T03:45:11.401Z,502.00
2023-05-21T03:46:11.443Z,508.00
2023-05-21T03:47:11.426Z,501.00
2023-05-21T03:48:11.408Z,505.00
2023-05-21T03:49:11.425Z,507.00
2023-05-21T03:50:11.415Z,503.00
2023-05-21T03:51:11.419Z,506.00
2023-05-21T03:52:11.427Z,504.00
2023-05-21T03:53:11.420Z,505.00
2023-05-21T03:54:11.432Z,506.00
2023-05-21T03:55:11.456Z,504.00
2023-05-21T03:56:11.458Z,508.00
2023-05-21T03:57:11.423Z,506.00
2023-05-21T03:58:11.417Z,508.00
2023-05-21T03:59:11.433Z,505.00
2023-05-21T04:00:11.479Z,505.00
2023-05-21T04:01:11.438Z,507.00
2023-05-21T04:02:11.490Z,506.00
2023-05-21T04:03:11.520Z,504.00
2023-05-21T04:04:11.560Z,503.00
2023-05-21T04:05:11.451Z,506.00
2023-05-21T04:06:11.456Z,503.00
2023-05-21T04:07:11.464Z,506.00
2023-05-21T04:08:11.459Z,505.00
2023-05-21T04:09:11.470Z,503.00
2023-05-21T04:10:11.473Z,506.00
2023-05-21T04:11:11.484Z,504.00
2023-05-21T04:12:11.527Z,504.00
2023-05-21T04:13:11.538Z,507.00
2023-05-21T04:14:11.606Z,503.00
2023-05-21T04:15:11.614Z,504.00
2023-05-21T04:16:11.711Z,502.00
2023-05-21T04:17:11.676Z,505.00
2023-05-21T04:18:11.704Z,501.00
2023-05-21T04:19:11.801Z,505.00
2023-05-21T04:20:11.773Z,505.00
2023-05-21T04:21:11.807Z,505.00
2023-05-21T04:22:11.847Z,503.00
2023-05-21T04:23:11.867Z,505.00
2023-05-21T04:24:11.908Z,504.00
2023-05-21T04:25:11.945Z,506.00
2023-05-21T04:26:11.981Z,506.00
2023-05-21T04:27:12.012Z,505.00
2023-05-21T04:28:12.069Z,503.00
2023-05-21T04:29:12.083Z,502.00
2023-05-21T04:30:12.123Z,500.00
2023-05-21T04:31:12.160Z,504.00
2023-05-21T04:32:12.197Z,502.00
2023-05-21T04:33:12.249Z,502.00
2023-05-21T04:34:12.268Z,501.00
2023-05-21T04:35:12.303Z,502.00
2023-05-21T04:36:12.360Z,502.00
2023-05-21T04:37:12.361Z,500.00
2023-05-21T04:38:12.408Z,506.00
2023-05-21T04:39:12.461Z,508.00
2023-05-21T04:40:12.472Z,507.00
2023-05-21T04:41:12.524Z,500.00
2023-05-21T04:42:12.561Z,501.00
2023-05-21T04:43:12.578Z,505.00
2023-05-21T04:44:12.623Z,506.00
2023-05-21T04:45:12.640Z,506.00
2023-05-21T04:46:12.748Z,506.00
2023-05-21T04:47:12.707Z,502.00
2023-05-21T04:48:12.770Z,503.00
2023-05-21T04:49:12.758Z,505.00
2023-05-21T04:50:12.802Z,501.00
2023-05-21T04:51:12.818Z,504.00
2023-05-21T04:52:12.837Z,503.00
2023-05-21T04:53:12.859Z,504.00
2023-05-21T04:54:12.877Z,502.00
2023-05-21T04:55:12.908Z,501.00
2023-05-21T04:56:12.940Z,507.00
2023-05-21T04:57:12.989Z,503.00
2023-05-21T04:58:13.007Z,503.00
2023-05-21T04:59:13.018Z,504.00
2023-05-21T05:00:13.078Z,502.00
2023-05-21T05:01:13.146Z,503.00
2023-05-21T05:02:13.136Z,506.00
2023-05-21T05:03:13.295Z,504.00
2023-05-21T05:04:13.169Z,504.00
2023-05-21T05:05:13.207Z,504.00
2023-05-21T05:06:13.242Z,502.00
2023-05-21T05:07:13.273Z,504.00
2023-05-21T05:08:15.875Z,504.00
2023-05-21T05:09:13.347Z,510.00
2023-05-21T05:10:13.334Z,512.00
2023-05-21T05:11:13.311Z,504.00
2023-05-21T05:12:13.311Z,504.00
2023-05-21T05:13:13.312Z,505.00
2023-05-21T05:14:13.315Z,501.00
2023-05-21T05:15:13.317Z,505.00
2023-05-21T05:16:13.368Z,502.00
2023-05-21T05:17:13.319Z,500.00
2023-05-21T05:18:13.333Z,504.00
2023-05-21T05:19:13.384Z,502.00
2023-05-21T05:20:13.326Z,501.00
2023-05-21T05:21:13.328Z,501.00
2023-05-21T05:22:13.660Z,504.00
2023-05-21T05:23:13.350Z,504.00
2023-05-21T05:24:13.345Z,505.00
2023-05-21T05:25:13.340Z,503.00
2023-05-21T05:26:13.340Z,501.00
2023-05-21T05:27:13.361Z,503.00
2023-05-21T05:28:13.344Z,504.00
2023-05-21T05:29:13.337Z,508.00
2023-05-21T05:30:13.344Z,503.00
2023-05-21T05:31:13.362Z,504.00
2023-05-21T05:32:13.377Z,504.00
2023-05-21T05:33:13.342Z,504.00
2023-05-21T05:34:13.328Z,506.00
2023-05-21T05:35:13.334Z,506.00
2023-05-21T05:36:13.329Z,504.00
2023-05-21T05:37:13.337Z,504.00
2023-05-21T05:38:13.331Z,506.00
2023-05-21T05:39:13.316Z,506.00
2023-05-21T05:40:13.342Z,505.00
2023-05-21T05:41:13.314Z,506.00
2023-05-21T05:42:13.309Z,503.00
2023-05-21T05:43:13.324Z,506.00
2023-05-21T05:44:13.312Z,507.00
2023-05-21T05:45:13.320Z,506.00
2023-05-21T05:46:13.364Z,501.00
2023-05-21T05:47:13.311Z,507.00
2023-05-21T05:48:13.375Z,503.00
2023-05-21T05:49:13.299Z,505.00
2023-05-21T05:50:13.313Z,508.00
2023-05-21T05:51:13.313Z,501.00
2023-05-21T05:52:13.307Z,507.00
2023-05-21T05:53:13.358Z,505.00
2023-05-21T05:54:13.335Z,506.00
2023-05-21T05:55:13.369Z,508.00
2023-05-21T05:56:13.399Z,504.00
2023-05-21T05:57:13.426Z,506.00
2023-05-21T05:58:13.461Z,504.00
2023-05-21T05:59:13.483Z,504.00
2023-05-21T06:00:13.520Z,510.00
2023-05-21T06:01:13.578Z,505.00
2023-05-21T06:02:13.589Z,504.00
2023-05-21T06:03:13.667Z,504.00
2023-05-21T06:04:13.644Z,502.00
2023-05-21T06:05:13.661Z,507.00
2023-05-21T06:06:13.811Z,503.00
2023-05-21T06:07:14.075Z,504.00
2023-05-21T06:08:14.113Z,500.00
2023-05-21T06:09:14.114Z,505.00
2023-05-21T06:10:14.117Z,508.00
2023-05-21T06:11:14.116Z,507.00
2023-05-21T06:12:15.016Z,501.00
2023-05-21T06:13:14.106Z,505.00
2023-05-21T06:14:14.112Z,501.00
2023-05-21T06:15:14.118Z,504.00
2023-05-21T06:16:14.192Z,502.00
2023-05-21T06:17:14.120Z,507.00
2023-05-21T06:18:14.149Z,503.00
2023-05-21T06:19:14.201Z,503.00
2023-05-21T06:20:14.168Z,504.00
2023-05-21T06:21:14.122Z,500.00
2023-05-21T06:22:14.216Z,504.00
2023-05-21T06:23:14.137Z,505.00
2023-05-21T06:24:14.135Z,503.00
2023-05-21T06:25:14.150Z,502.00
2023-05-21T06:26:14.162Z,502.00
2023-05-21T06:27:14.237Z,504.00
2023-05-21T06:28:14.212Z,505.00
2023-05-21T06:29:15.545Z,506.00
2023-05-21T06:30:14.256Z,507.00
2023-05-21T06:31:14.276Z,506.00
2023-05-21T06:32:14.302Z,501.00
2023-05-21T06:33:14.418Z,505.00
2023-05-21T06:34:14.338Z,503.00
2023-05-21T06:35:14.355Z,503.00
2023-05-21T06:36:14.395Z,506.00
2023-05-21T06:37:14.396Z,501.00
2023-05-21T06:38:14.418Z,505.00
2023-05-21T06:39:14.437Z,503.00
2023-05-21T06:40:14.464Z,506.00
2023-05-21T06:41:14.485Z,504.00
2023-05-21T06:42:14.492Z,504.00
2023-05-21T06:43:14.523Z,505.00
2023-05-21T06:44:14.529Z,505.00
2023-05-21T06:45:14.552Z,502.00
2023-05-21T06:46:14.603Z,503.00
2023-05-21T06:47:14.585Z,504.00
2023-05-21T06:48:14.596Z,506.00
2023-05-21T06:49:14.655Z,503.00
2023-05-21T06:50:14.634Z,500.00
2023-05-21T06:51:15.090Z,502.00
2023-05-21T06:52:14.685Z,503.00
2023-05-21T06:53:14.695Z,505.00
2023-05-21T06:54:14.714Z,506.00
2023-05-21T06:55:14.723Z,502.00
2023-05-21T06:56:15.138Z,501.00
2023-05-21T06:57:15.137Z,504.00
2023-05-21T06:58:15.138Z,506.00
2023-05-21T06:59:15.136Z,502.00
2023-05-21T07:00:15.142Z,506.00
2023-05-21T07:01:15.173Z,504.00
2023-05-21T07:02:15.176Z,503.00
2023-05-21T07:03:15.291Z,506.00
2023-05-21T07:04:15.148Z,505.00
2023-05-21T07:05:15.142Z,504.00
2023-05-21T07:06:15.162Z,507.00
2023-05-21T07:07:15.139Z,504.00
2023-05-21T07:08:15.186Z,506.00
2023-05-21T07:09:15.140Z,508.00
2023-05-21T07:10:15.152Z,503.00
2023-05-21T07:11:15.147Z,505.00
2023-05-21T07:12:15.138Z,504.00
2023-05-21T07:13:15.143Z,505.00
2023-05-21T07:14:15.145Z,504.00
2023-05-21T07:15:15.145Z,504.00
2023-05-21T07:16:15.212Z,507.00
2023-05-21T07:17:15.148Z,508.00
2023-05-21T07:18:15.236Z,508.00
2023-05-21T07:19:15.172Z,505.00
2023-05-21T07:20:15.151Z,504.00
2023-05-21T07:21:15.158Z,504.00
2023-05-21T07:22:15.188Z,506.00
2023-05-21T07:23:15.150Z,503.00
2023-05-21T07:24:15.189Z,507.00
2023-05-21T07:25:15.169Z,505.00
2023-05-21T07:26:15.197Z,505.00
2023-05-21T07:27:25.227Z,506.00
2023-05-21T07:28:15.198Z,506.00
2023-05-21T07:29:15.188Z,508.00
2023-05-21T07:30:15.183Z,507.00
2023-05-21T07:31:15.256Z,509.00
2023-05-21T07:32:15.178Z,509.00
2023-05-21T07:33:15.184Z,512.00
2023-05-21T07:34:15.182Z,512.00
2023-05-21T07:35:15.183Z,507.00
2023-05-21T07:36:15.188Z,509.00
2023-05-21T07:37:15.184Z,507.00
2023-05-21T07:38:15.173Z,508.00
2023-05-21T07:39:15.177Z,506.00
2023-05-21T07:40:15.198Z,508.00
2023-05-21T07:41:17.812Z,508.00
2023-05-21T07:42:15.172Z,509.00
2023-05-21T07:43:15.167Z,509.00
2023-05-21T07:44:15.164Z,511.00
2023-05-21T07:45:15.162Z,508.00
2023-05-21T07:46:15.212Z,508.00
2023-05-21T07:47:15.162Z,512.00
2023-05-21T07:48:15.170Z,510.00
2023-05-21T07:49:15.167Z,506.00
2023-05-21T07:50:15.178Z,508.00
2023-05-21T07:51:15.169Z,509.00
2023-05-21T07:52:15.168Z,510.00
2023-05-21T07:53:15.173Z,505.00
2023-05-21T07:54:15.174Z,504.00
2023-05-21T07:55:15.169Z,510.00
2023-05-21T07:56:15.196Z,508.00
2023-05-21T07:57:15.180Z,509.00
2023-05-21T07:58:15.184Z,509.00
2023-05-21T07:59:15.174Z,507.00
2023-05-21T08:00:15.172Z,508.00
2023-05-21T08:01:15.187Z,510.00
2023-05-21T08:02:15.175Z,510.00
2023-05-21T08:03:15.261Z,511.00
2023-05-21T08:04:15.265Z,511.00
2023-05-21T08:05:15.233Z,512.00
2023-05-21T08:06:15.173Z,511.00
2023-05-21T08:07:15.177Z,513.00
2023-05-21T08:08:15.190Z,510.00
2023-05-21T08:09:15.183Z,510.00
2023-05-21T08:10:17.088Z,511.00
2023-05-21T08:11:15.259Z,511.00
2023-05-21T08:12:15.216Z,511.00
2023-05-21T08:13:15.181Z,512.00
2023-05-21T08:14:15.181Z,511.00
2023-05-21T08:15:15.178Z,513.00
2023-05-21T08:16:15.255Z,518.00
2023-05-21T08:17:15.180Z,515.00
2023-05-21T08:18:15.987Z,515.00
2023-05-21T08:19:15.224Z,517.00
2023-05-21T08:20:15.232Z,515.00
2023-05-21T08:21:15.190Z,513.00
2023-05-21T08:22:15.186Z,511.00
2023-05-21T08:23:15.237Z,512.00
2023-05-21T08:24:15.188Z,514.00
2023-05-21T08:25:15.208Z,517.00
2023-05-21T08:26:15.201Z,513.00
2023-05-21T08:27:15.207Z,512.00
2023-05-21T08:28:15.218Z,514.00
2023-05-21T08:29:15.196Z,515.00
2023-05-21T08:30:15.186Z,514.00
2023-05-21T08:31:15.376Z,513.00
2023-05-21T08:32:15.242Z,516.00
2023-05-21T08:33:15.195Z,516.00
2023-05-21T08:34:15.197Z,515.00
2023-05-21T08:35:15.192Z,516.00
2023-05-21T08:36:15.202Z,513.00
2023-05-21T08:37:15.194Z,515.00
2023-05-21T08:38:15.195Z,516.00
2023-05-21T08:39:15.198Z,515.00
2023-05-21T08:40:15.202Z,513.00
2023-05-21T08:41:15.204Z,516.00
2023-05-21T08:42:22.609Z,514.00
2023-05-21T08:43:15.193Z,515.00
2023-05-21T08:44:15.323Z,516.00
2023-05-21T08:45:15.206Z,517.00
2023-05-21T08:46:15.268Z,519.00
2023-05-21T08:47:15.160Z,520.00
2023-05-21T08:48:15.166Z,519.00
2023-05-21T08:49:15.162Z,516.00
2023-05-21T08:50:14.792Z,515.00
2023-05-21T08:51:14.781Z,518.00
2023-05-21T08:52:14.777Z,519.00
2023-05-21T08:53:24.044Z,518.00
2023-05-21T08:54:14.755Z,519.00
2023-05-21T08:55:14.743Z,521.00
2023-05-21T08:56:16.500Z,522.00
2023-05-21T08:57:14.725Z,527.00
2023-05-21T08:58:14.717Z,519.00
2023-05-21T08:59:14.724Z,519.00
2023-05-21T09:00:14.721Z,519.00
2023-05-21T09:01:14.735Z,521.00
2023-05-21T09:02:14.689Z,519.00
2023-05-21T09:03:14.723Z,521.00
2023-05-21T09:04:20.719Z,522.00
2023-05-21T09:05:14.641Z,522.00
2023-05-21T09:06:14.620Z,523.00
2023-05-21T09:07:14.610Z,524.00
2023-05-21T09:08:14.602Z,525.00
2023-05-21T09:09:14.591Z,526.00
2023-05-21T09:10:14.577Z,525.00
2023-05-21T09:11:14.564Z,525.00
2023-05-21T09:12:14.552Z,523.00
2023-05-21T09:13:14.544Z,523.00
2023-05-21T09:14:14.522Z,524.00
2023-05-21T09:15:14.534Z,523.00
2023-05-21T09:16:14.589Z,524.00
2023-05-21T09:17:14.500Z,523.00
2023-05-21T09:18:14.551Z,524.00
2023-05-21T09:19:14.545Z,522.00
2023-05-21T09:20:14.559Z,525.00
2023-05-21T09:21:14.479Z,524.00
2023-05-21T09:22:14.467Z,526.00
2023-05-21T09:23:14.462Z,524.00
2023-05-21T09:24:14.446Z,522.00
2023-05-21T09:25:14.451Z,523.00
2023-05-21T09:26:14.434Z,525.00
2023-05-21T09:27:14.421Z,524.00
2023-05-21T09:28:14.417Z,526.00
2023-05-21T09:29:14.410Z,525.00
2023-05-21T09:30:14.394Z,524.00
2023-05-21T09:31:14.455Z,523.00
2023-05-21T09:32:14.419Z,528.00
2023-05-21T09:33:14.425Z,526.00
2023-05-21T09:34:14.394Z,525.00
2023-05-21T09:35:14.367Z,526.00
2023-05-21T09:36:14.351Z,527.00
2023-05-21T09:37:26.522Z,527.00
2023-05-21T09:38:14.329Z,528.00
2023-05-21T09:39:14.321Z,529.00
2023-05-21T09:40:14.306Z,529.00
2023-05-21T09:41:14.978Z,529.00
2023-05-21T09:42:14.306Z,527.00
2023-05-21T09:43:14.297Z,529.00
2023-05-21T09:44:14.305Z,530.00
2023-05-21T09:45:14.294Z,531.00
2023-05-21T09:46:14.359Z,533.00
2023-05-21T09:47:14.280Z,532.00
2023-05-21T09:48:14.308Z,530.00
2023-05-21T09:49:14.272Z,533.00
2023-05-21T09:50:14.275Z,533.00
2023-05-21T09:51:14.270Z,528.00
2023-05-21T09:52:14.248Z,532.00
2023-05-21T09:53:14.239Z,530.00
2023-05-21T09:54:14.254Z,529.00
2023-05-21T09:55:14.238Z,528.00
2023-05-21T09:56:14.245Z,528.00
2023-05-21T09:57:14.246Z,532.00
2023-05-21T09:58:14.240Z,532.00
2023-05-21T09:59:14.242Z,529.00
2023-05-21T10:00:14.243Z,530.00
2023-05-21T10:01:15.263Z,531.00
2023-05-21T10:02:14.260Z,534.00
2023-05-21T10:03:14.329Z,534.00
2023-05-21T10:04:14.320Z,530.00
2023-05-21T10:05:14.248Z,534.00
2023-05-21T10:06:14.251Z,534.00
2023-05-21T10:07:14.243Z,533.00
2023-05-21T10:08:14.250Z,534.00
2023-05-21T10:09:14.243Z,534.00
2023-05-21T10:10:14.249Z,532.00
2023-05-21T10:11:14.249Z,535.00
2023-05-21T10:12:14.296Z,536.00
2023-05-21T10:13:14.353Z,533.00
2023-05-21T10:14:14.413Z,535.00
2023-05-21T10:15:14.501Z,536.00
2023-05-21T10:16:14.572Z,537.00
2023-05-21T10:17:14.571Z,536.00
2023-05-21T10:18:14.624Z,536.00
2023-05-21T10:19:15.569Z,539.00
2023-05-21T10:20:14.755Z,534.00
2023-05-21T10:21:14.791Z,535.00
2023-05-21T10:22:15.216Z,536.00
2023-05-21T10:23:15.250Z,538.00
2023-05-21T10:24:14.911Z,536.00
2023-05-21T10:25:14.986Z,536.00
2023-05-21T10:26:15.014Z,536.00
2023-05-21T10:27:15.067Z,536.00
2023-05-21T10:28:15.121Z,536.00
2023-05-21T10:29:16.270Z,537.00
2023-05-21T10:30:15.168Z,540.00
2023-05-21T10:31:15.146Z,541.00
2023-05-21T10:32:15.174Z,538.00
2023-05-21T10:33:15.292Z,536.00
2023-05-21T10:34:15.158Z,539.00
2023-05-21T10:35:15.122Z,538.00
2023-05-21T10:36:15.336Z,541.00
2023-05-21T10:37:15.106Z,539.00
2023-05-21T10:38:15.127Z,542.00
2023-05-21T10:39:15.092Z,538.00
2023-05-21T10:40:15.086Z,538.00
2023-05-21T10:41:15.562Z,537.00
2023-05-21T10:42:15.080Z,539.00
2023-05-21T10:43:16.049Z,540.00
2023-05-21T10:44:15.065Z,541.00
2023-05-21T10:45:15.052Z,539.00
2023-05-21T10:46:15.124Z,540.00
2023-05-21T10:47:15.034Z,540.00
2023-05-21T10:48:15.069Z,540.00
2023-05-21T10:49:15.041Z,539.00
2023-05-21T10:50:15.023Z,539.00
2023-05-21T10:51:15.074Z,541.00
2023-05-21T10:52:15.151Z,538.00
2023-05-21T10:53:15.201Z,538.00
2023-05-21T10:54:15.222Z,536.00
2023-05-21T10:55:15.266Z,540.00
2023-05-21T10:56:15.321Z,540.00
2023-05-21T10:57:15.360Z,540.00
2023-05-21T10:58:15.415Z,542.00
2023-05-21T10:59:15.450Z,540.00
2023-05-21T11:00:15.497Z,539.00
2023-05-21T11:01:15.644Z,542.00
2023-05-21T11:02:15.653Z,539.00
2023-05-21T11:03:15.752Z,542.00
2023-05-21T11:04:15.720Z,540.00
2023-05-21T11:05:15.749Z,541.00
2023-05-21T11:06:15.748Z,544.00
2023-05-21T11:07:15.787Z,545.00
2023-05-21T11:08:15.862Z,539.00
2023-05-21T11:09:15.885Z,543.00
2023-05-21T11:10:15.924Z,541.00
2023-05-21T11:11:15.982Z,545.00
2023-05-21T11:12:16.001Z,539.00
2023-05-21T11:13:16.039Z,540.00
2023-05-21T11:14:16.101Z,542.00
2023-05-21T11:15:16.138Z,542.00
2023-05-21T11:16:16.193Z,545.00
2023-05-21T11:17:16.407Z,545.00
2023-05-21T11:18:16.295Z,542.00
2023-05-21T11:19:16.427Z,544.00
2023-05-21T11:20:16.389Z,544.00
2023-05-21T11:21:16.439Z,548.00
2023-05-21T11:22:16.486Z,548.00
2023-05-21T11:23:16.534Z,546.00
2023-05-21T11:24:16.602Z,543.00
2023-05-21T11:25:16.616Z,545.00
2023-05-21T11:26:16.666Z,544.00
2023-05-21T11:27:16.705Z,542.00
2023-05-21T11:28:16.756Z,545.00
2023-05-21T11:29:16.802Z,540.00
2023-05-21T11:30:16.873Z,539.00
2023-05-21T11:31:16.927Z,542.00
2023-05-21T11:32:16.921Z,545.00
2023-05-21T11:33:16.985Z,540.00
2023-05-21T11:34:17.010Z,546.00
2023-05-21T11:35:17.051Z,538.00
2023-05-21T11:36:17.092Z,545.00
2023-05-21T11:37:17.136Z,538.00
2023-05-21T11:38:17.177Z,544.00
2023-05-21T11:39:17.220Z,546.00
2023-05-21T11:40:17.307Z,544.00
2023-05-21T11:41:17.322Z,546.00
2023-05-21T11:42:17.360Z,549.00
2023-05-21T11:43:17.389Z,544.00
2023-05-21T11:44:17.433Z,544.00
2023-05-21T11:45:17.479Z,541.00
2023-05-21T11:46:17.535Z,546.00
2023-05-21T11:47:17.560Z,547.00
2023-05-21T11:48:17.597Z,546.00
2023-05-21T11:49:17.636Z,545.00
2023-05-21T11:50:17.700Z,546.00
2023-05-21T11:51:17.702Z,541.00
2023-05-21T11:52:17.729Z,548.00
2023-05-21T11:53:17.757Z,543.00
2023-05-21T11:54:17.789Z,541.00
2023-05-21T11:55:17.834Z,542.00
2023-05-21T11:56:17.896Z,547.00
2023-05-21T11:57:17.907Z,541.00
2023-05-21T11:58:17.940Z,547.00
2023-05-21T11:59:18.974Z,545.00
2023-05-21T12:00:18.023Z,539.00
2023-05-21T12:01:18.059Z,544.00
2023-05-21T12:02:18.112Z,548.00
2023-05-21T12:03:18.326Z,543.00
2023-05-21T12:04:18.177Z,545.00
2023-05-21T12:05:18.241Z,548.00
2023-05-21T12:06:18.349Z,540.00
2023-05-21T12:07:18.288Z,549.00
2023-05-21T12:08:18.314Z,545.00
2023-05-21T12:09:18.353Z,546.00
2023-05-21T12:10:18.401Z,542.00
2023-05-21T12:11:18.432Z,548.00
2023-05-21T12:12:18.564Z,539.00
2023-05-21T12:13:18.496Z,547.00
2023-05-21T12:14:19.124Z,543.00
2023-05-21T12:15:18.569Z,548.00
2023-05-21T12:16:18.631Z,547.00
2023-05-21T12:17:18.623Z,544.00
2023-05-21T12:18:18.660Z,546.00
2023-05-21T12:19:18.756Z,549.00
2023-05-21T12:20:18.738Z,548.00
2023-05-21T12:21:18.768Z,545.00
2023-05-21T12:22:18.812Z,548.00
2023-05-21T12:23:18.832Z,543.00
2023-05-21T12:24:18.868Z,547.00
2023-05-21T12:25:18.918Z,550.00
2023-05-21T12:26:18.964Z,545.00
2023-05-21T12:27:18.974Z,547.00
2023-05-21T12:28:19.039Z,549.00